Grover Beach, California
Current Conditions -  °F | °C
As of 9:56 PM on Saturday 25 Oct 2014 (Local Time) from KSBP Reporting Station
Clear Clear  
Wind Chill: 61°   Ceiling: Unl
Heat Index: 61°   Visibility: 10mi
Dew Point: 56°   Wind: 8mph
Humidity: 83%   Direction: 330°NNW
Pressure: 30.1"   Gusts: NA
Location:  35.12°N, 120.62°W
Report Text: KSBP 260456Z 33007KT 10SM CLR 16/13 A3010 RMK AO2 SLP190 T01610133
Loading
Personal Weather Stations






























Interactive Weather Map New forecast layout! Learn more

10-Day Weather Forecast

Advertisements
Track Severe Weather on mobile